Otog Qi, China
Current Conditions -  °F | °C
As of 6:00 PM on Monday 20 Oct 2014 (Local Time) from ZBHH Reporting Station
Clear Clear  
Wind Chill: 59°   Ceiling: Unl
Heat Index: 59°   Visibility: 5mi
Dew Point: 30°   Wind: 4mph
Humidity: 34%   Direction: 250°WSW
Pressure: 30.06"   Gusts: NA
Location:  39.1°N, 107.98°E
Report Text: ZBHH 201000Z 25002MPS 8000 NSC 15/M01 Q1018 NOSIG
Loading
Personal Weather Stations






























Interactive Weather Map
Tropical Storm Tracking
New forecast layout! Learn more

10-Day Weather Forecast

Advertisements
Track Severe Weather on mobile